Homer, AK

9:16 PM AKST on December 25, 2014 (GMT -0900)
RAWS HOMER AK US | Change Station
CLOSE
Current Station
Personal Weather Station
Location: Homer, AK
Elevation: 854 ft
Nearby Weather Stations

Elev 854 ft 59.75 °N, 151.20 °W | Updated 1 hour ago

Scattered Clouds
Scattered Clouds
33 °F
Feels Like 29 °F
N
4
Wind Variable Wind from SSW
Gusts 8.0 mph

Today
High -- | Low -- °F
--% Chance of Precip.
Yesterday
High -- | Low -- °F
Precip. -- in
10:05 AM 4:04 PM
Waxing Crescent, 23% visible
Pressure 29.83 in
Visibility 10.0 miles
Clouds Few 4000 ft
Scattered Clouds 5000 ft
Windchill 29 °F
Dew Point 28 °F
Humidity 82%
Rainfall 0.03 in
Snow Depth Not available.
UV 0 out of 12
Pollen Not available.
Air Quality Not available.
Flu Activity Not available.
METAR PAHO 260553Z VRB04KT 10SM FEW040 SCT050 03/M01 A2982 RMK AO2 SLP099 60001 T00281006 10050 20022 51016 $

More Conditions Fewer Conditions

Pressure 29.83 in
Visibility 10.0 miles
Clouds Few 4000 ft
Scattered Clouds 5000 ft
Windchill 29 °F
Dew Point 28 °F
Humidity 82%
Rainfall 0.03 in
Snow Depth Not available.
UV 0 out of 12
Pollen Not available.
Air Quality Not available.
Flu Activity Not available.
METAR PAHO 260553Z VRB04KT 10SM FEW040 SCT050 03/M01 A2982 RMK AO2 SLP099 60001 T00281006 10050 20022 51016 $

More Conditions Fewer Conditions

10-Day Weather Forecast

Almanac

Astronomy

Dec. 25, 2014 Rise Set
Actual Time
Civil Twilight
Nautical Twilight
Astronomical Twilight
Moon
Length of Visible Light
Length of Day
Tomorrow will be .
, % of the Moon is Illuminated

Today's Extremes

State Highs State Lows

Community

WunderPhotos

Upload Photos

1,780,555 photos uploaded!

WunderBlogs® & News

Nearby

Air Quality

  Air Quality AQ Index Pollutant
Not available.

Snow Depth

Station Depth Elevation

Earthquake Activity

City Distance Mag. Time & Date
Minimum magnitude displayed is 2.5.

Coastal Water Temperatures

Place Temperature

Nearby Weather Stations